Time;durP1;ratioP1;P1;durP2;ratioP2;P2;SDS_P1;SDS_P2;PMS_P1;PMS_P2;Temp;Humidity;BMP_temperature;BMP_pressure;BME280_temperature;BME280_humidity;BME280_pressure;Samples;Min_cycle;Max_cycle;Signal;HPM_P1;HPM_P2
2022/12/31 00:00:49;;;;;;;4.40;2.10;;;13.20;87.40;;;;;;5040901;28;20478;-70
2022/12/31 00:03:16;;;;;;;3.80;2.00;;;13.30;87.40;;;;;;5042510;28;20484;-70
2022/12/31 00:05:46;;;;;;;4.27;1.60;;;13.30;87.40;;;;;;5042798;28;20460;-70
2022/12/31 00:08:14;;;;;;;4.97;1.83;;;13.30;87.50;;;;;;5036711;28;20461;-70
2022/12/31 00:10:42;;;;;;;4.20;1.50;;;13.30;87.50;;;;;;5042406;28;20526;-71
2022/12/31 00:13:11;;;;;;;3.70;1.70;;;13.30;87.60;;;;;;5039447;28;20467;-71
2022/12/31 00:15:39;;;;;;;3.50;1.50;;;13.30;87.60;;;;;;5040431;28;21121;-69
2022/12/31 00:18:08;;;;;;;3.53;1.40;;;13.30;87.60;;;;;;5040731;28;20467;-69
2022/12/31 00:20:40;;;;;;;4.60;1.77;;;13.30;87.60;;;;;;5041886;28;20465;-70
2022/12/31 00:23:10;;;;;;;4.00;1.80;;;13.30;87.50;;;;;;5042173;28;21211;-70
2022/12/31 00:25:38;;;;;;;8.03;1.70;;;13.20;87.60;;;;;;5041944;28;20471;-70
2022/12/31 00:28:06;;;;;;;4.73;1.23;;;13.20;87.60;;;;;;5041714;28;20451;-69
2022/12/31 00:30:34;;;;;;;3.83;1.60;;;13.20;87.70;;;;;;5041641;28;20475;-71
2022/12/31 00:33:02;;;;;;;3.13;1.40;;;13.20;87.70;;;;;;5037837;28;20523;-70
2022/12/31 00:35:30;;;;;;;5.17;1.67;;;13.20;87.70;;;;;;5041764;28;20481;-71
2022/12/31 00:37:58;;;;;;;3.77;1.47;;;13.20;87.70;;;;;;5041731;28;20455;-71
2022/12/31 00:40:28;;;;;;;13.20;2.13;;;13.20;87.80;;;;;;5041066;28;20516;-70
2022/12/31 00:42:56;;;;;;;4.73;1.50;;;13.20;87.80;;;;;;5040482;28;20540;-71
2022/12/31 00:45:24;;;;;;;3.70;1.50;;;13.20;87.70;;;;;;5041232;28;20483;-71
2022/12/31 00:47:52;;;;;;;3.73;1.37;;;13.20;87.70;;;;;;5041215;28;20450;-71
2022/12/31 00:50:20;;;;;;;3.77;1.60;;;13.20;87.70;;;;;;5038795;28;20459;-71
2022/12/31 00:52:48;;;;;;;7.90;1.60;;;13.30;87.70;;;;;;5040485;28;20909;-70
2022/12/31 00:55:16;;;;;;;3.60;1.40;;;13.20;87.70;;;;;;5041459;28;21031;-71
2022/12/31 00:57:45;;;;;;;3.40;1.13;;;13.20;87.80;;;;;;5040781;28;20530;-70
2022/12/31 01:00:15;;;;;;;5.27;1.77;;;13.30;87.80;;;;;;5041996;28;21281;-70
2022/12/31 01:02:43;;;;;;;4.83;1.50;;;13.30;87.80;;;;;;5040597;28;20471;-71
2022/12/31 01:05:11;;;;;;;3.70;1.80;;;13.20;87.80;;;;;;5041234;28;20502;-71
2022/12/31 01:07:39;;;;;;;5.43;1.70;;;13.20;87.80;;;;;;5040872;28;20458;-71
2022/12/31 01:10:07;;;;;;;3.70;1.70;;;13.30;87.80;;;;;;5040856;28;20471;-71
2022/12/31 01:12:35;;;;;;;3.50;1.20;;;13.30;87.80;;;;;;5040571;28;20487;-69
2022/12/31 01:15:06;;;;;;;3.57;1.47;;;13.20;87.80;;;;;;5039169;28;20487;-71
2022/12/31 01:17:34;;;;;;;4.33;1.20;;;13.20;87.80;;;;;;5039795;28;20459;-72
2022/12/31 01:20:02;;;;;;;3.27;0.93;;;13.20;87.90;;;;;;5054647;28;20453;-71
2022/12/31 01:22:30;;;;;;;4.87;1.50;;;13.20;87.90;;;;;;5036726;28;20489;-71
2022/12/31 01:24:58;;;;;;;2.80;0.80;;;13.20;88.00;;;;;;5040646;28;20488;-71
2022/12/31 01:27:26;;;;;;;2.97;0.80;;;13.20;88.00;;;;;;5042390;28;20467;-69
2022/12/31 01:29:54;;;;;;;4.30;1.00;;;13.20;88.00;;;;;;5040192;28;21017;-70
2022/12/31 01:32:24;;;;;;;5.27;1.27;;;13.30;87.90;;;;;;5041936;28;20480;-71
2022/12/31 01:34:52;;;;;;;7.03;0.70;;;13.30;87.90;;;;;;5041434;28;20440;-71
2022/12/31 01:37:20;;;;;;;2.60;0.50;;;13.30;88.10;;;;;;5041732;28;20459;-71
2022/12/31 01:39:48;;;;;;;2.47;0.60;;;13.30;88.00;;;;;;5039637;28;20462;-71
2022/12/31 01:42:16;;;;;;;3.90;0.73;;;13.40;88.00;;;;;;5042068;28;20482;-71
2022/12/31 01:44:52;;;;;;;2.83;0.60;;;13.40;88.00;;;;;;5042173;28;21171;-71
2022/12/31 01:47:34;;;;;;;2.90;0.50;;;13.40;88.20;;;;;;5042839;28;20458;-69
2022/12/31 01:50:09;;;;;;;3.00;0.80;;;13.40;88.40;;;;;;5042944;28;20549;-69
2022/12/31 01:52:41;;;;;;;8.67;0.90;;;13.40;88.20;;;;;;5042022;28;20478;-69
2022/12/31 01:55:14;;;;;;;2.57;0.63;;;13.40;88.40;;;;;;5044625;28;20454;-71
2022/12/31 01:57:43;;;;;;;2.70;0.80;;;13.50;88.20;;;;;;5041128;28;20467;-70
2022/12/31 02:00:12;;;;;;;3.23;1.10;;;13.50;88.20;;;;;;5042599;28;20463;-71
2022/12/31 02:02:41;;;;;;;4.30;1.40;;;13.50;88.40;;;;;;5041955;28;20490;-71
2022/12/31 02:05:18;;;;;;;4.40;1.53;;;13.50;88.40;;;;;;5040146;28;20488;-70
2022/12/31 02:07:47;;;;;;;3.43;1.53;;;13.60;88.50;;;;;;5041432;28;20461;-70
2022/12/31 02:10:16;;;;;;;3.87;1.43;;;13.70;88.50;;;;;;5039417;28;20459;-71
2022/12/31 02:12:44;;;;;;;3.50;1.37;;;13.70;88.40;;;;;;5040522;28;21223;-71
2022/12/31 02:15:12;;;;;;;3.40;1.60;;;13.80;88.30;;;;;;5041775;28;20504;-70
2022/12/31 02:17:49;;;;;;;3.67;1.57;;;13.80;88.30;;;;;;5040738;28;21227;-71
2022/12/31 02:20:44;;;;;;;3.87;1.70;;;13.80;88.40;;;;;;5041495;28;20458;-70
2022/12/31 02:23:48;;;;;;;3.40;1.50;;;13.80;88.40;;;;;;5040814;28;20482;-70
2022/12/31 02:26:49;;;;;;;3.30;1.50;;;13.90;88.30;;;;;;5001305;28;20486;-70
2022/12/31 02:29:52;;;;;;;3.27;1.50;;;13.90;88.20;;;;;;5004103;28;20475;-69
2022/12/31 02:32:29;;;;;;;3.00;1.20;;;13.90;88.20;;;;;;5039392;28;20532;-71
2022/12/31 02:35:01;;;;;;;3.57;1.57;;;13.90;88.30;;;;;;5043586;28;20467;-70
2022/12/31 02:37:32;;;;;;;3.53;1.40;;;13.90;88.20;;;;;;5041091;28;20517;-70
2022/12/31 02:40:00;;;;;;;3.50;1.40;;;14.00;88.20;;;;;;5041234;28;20471;-71
2022/12/31 02:42:28;;;;;;;4.30;1.50;;;14.00;88.20;;;;;;5041558;28;20486;-69
2022/12/31 02:44:56;;;;;;;4.00;1.40;;;14.00;88.10;;;;;;5041702;28;20501;-70
2022/12/31 02:47:37;;;;;;;3.00;1.23;;;14.00;88.10;;;;;;5042239;28;20976;-70
2022/12/31 02:50:20;;;;;;;5.60;1.50;;;14.00;88.10;;;;;;5042781;28;20451;-70
2022/12/31 02:52:58;;;;;;;4.43;1.47;;;14.10;88.10;;;;;;5040660;28;20843;-69
2022/12/31 02:55:31;;;;;;;3.60;1.20;;;14.10;87.90;;;;;;5039296;28;20462;-71
2022/12/31 02:58:07;;;;;;;6.50;1.30;;;14.20;87.80;;;;;;5041813;28;21226;-69
2022/12/31 03:03:30;;;;;;;3.20;1.00;;;14.20;87.70;;;;;;5041643;28;20874;-70
2022/12/31 03:06:00;;;;;;;3.47;1.10;;;14.20;87.60;;;;;;5041589;28;20475;-70
2022/12/31 03:08:28;;;;;;;3.80;1.50;;;14.20;87.60;;;;;;5043280;28;21026;-69
2022/12/31 03:10:56;;;;;;;4.20;1.73;;;14.20;87.50;;;;;;5049436;28;20468;-69
2022/12/31 03:13:24;;;;;;;4.00;1.10;;;14.20;87.50;;;;;;5046142;28;20493;-70
2022/12/31 03:15:51;;;;;;;3.10;1.10;;;14.20;87.40;;;;;;5047484;28;20580;-71
2022/12/31 03:22:26;;;;;;;3.80;0.97;;;14.20;87.40;;;;;;5050027;28;20539;-71
2022/12/31 03:26:44;;;;;;;3.73;1.17;;;14.20;87.20;;;;;;5050273;28;20478;-71
2022/12/31 03:29:12;;;;;;;4.10;1.13;;;14.20;87.10;;;;;;5049556;28;21041;-71
2022/12/31 03:31:40;;;;;;;6.20;1.50;;;14.20;87.10;;;;;;5050573;28;20463;-71
2022/12/31 03:34:08;;;;;;;3.40;1.07;;;14.20;87.00;;;;;;5049745;28;20514;-71
2022/12/31 03:36:38;;;;;;;3.40;1.00;;;14.20;87.00;;;;;;5049616;28;20454;-71
2022/12/31 03:39:06;;;;;;;4.60;1.10;;;14.20;87.00;;;;;;5050041;28;20551;-70
2022/12/31 03:41:34;;;;;;;3.30;1.17;;;14.20;87.00;;;;;;5047546;28;20512;-70
2022/12/31 03:44:02;;;;;;;8.17;0.90;;;14.20;86.90;;;;;;5047771;28;20524;-71
2022/12/31 03:46:29;;;;;;;3.20;1.30;;;14.30;86.80;;;;;;5049463;28;20990;-71
2022/12/31 03:48:57;;;;;;;3.20;1.10;;;14.30;86.80;;;;;;5049461;28;20560;-71
2022/12/31 03:51:25;;;;;;;4.63;1.00;;;14.30;86.60;;;;;;5048438;28;20461;-71
2022/12/31 03:53:55;;;;;;;4.70;1.07;;;14.30;86.60;;;;;;5046539;28;20556;-71
2022/12/31 03:56:22;;;;;;;2.97;0.73;;;14.30;86.60;;;;;;5046837;28;20466;-71
2022/12/31 03:58:51;;;;;;;3.77;1.00;;;14.20;86.60;;;;;;5045973;28;20447;-71
2022/12/31 04:01:23;;;;;;;3.53;0.83;;;14.20;86.60;;;;;;5043816;28;20463;-71
2022/12/31 04:03:51;;;;;;;4.60;1.13;;;14.30;86.50;;;;;;5043365;28;20489;-70
2022/12/31 04:06:19;;;;;;;3.17;0.83;;;14.30;86.50;;;;;;5044201;28;20483;-71
2022/12/31 04:08:46;;;;;;;3.90;0.77;;;14.30;86.50;;;;;;5041541;28;20876;-71
2022/12/31 04:11:16;;;;;;;3.50;0.80;;;14.30;86.50;;;;;;5044757;28;20482;-70
2022/12/31 04:13:48;;;;;;;3.17;1.20;;;14.30;86.50;;;;;;5042268;28;20577;-72
2022/12/31 04:16:16;;;;;;;3.47;1.00;;;14.30;86.50;;;;;;5041571;28;20479;-70
2022/12/31 04:18:43;;;;;;;4.33;1.00;;;14.30;86.50;;;;;;5043821;28;20504;-70
2022/12/31 04:21:11;;;;;;;2.97;1.10;;;14.30;86.60;;;;;;5043695;28;20490;-70
2022/12/31 04:23:40;;;;;;;4.40;0.90;;;14.30;86.60;;;;;;5042684;28;20479;-70
2022/12/31 04:26:08;;;;;;;3.67;0.90;;;14.30;86.50;;;;;;5041283;28;20968;-71
2022/12/31 04:28:37;;;;;;;3.50;1.10;;;14.40;86.50;;;;;;5040117;28;20879;-70
2022/12/31 04:31:05;;;;;;;3.00;0.90;;;14.40;86.40;;;;;;5042928;28;20469;-70
2022/12/31 04:33:33;;;;;;;6.00;1.43;;;14.40;86.30;;;;;;5041172;28;20487;-69
2022/12/31 04:36:01;;;;;;;5.30;1.00;;;14.40;86.10;;;;;;5044161;28;20451;-71
2022/12/31 04:38:29;;;;;;;3.37;0.90;;;14.40;86.10;;;;;;5044175;28;20466;-70
2022/12/31 04:43:45;;;;;;;3.83;1.10;;;14.40;86.30;;;;;;5043520;28;20487;-71
2022/12/31 04:46:15;;;;;;;4.03;1.20;;;14.40;86.30;;;;;;5042892;28;20487;-71
2022/12/31 04:48:43;;;;;;;3.23;0.97;;;14.40;86.10;;;;;;5042081;28;20447;-70
2022/12/31 04:51:11;;;;;;;6.13;1.00;;;14.40;86.10;;;;;;5042087;28;20490;-69
2022/12/31 04:53:39;;;;;;;4.20;0.93;;;14.40;86.10;;;;;;5042178;28;20487;-71
2022/12/31 04:56:09;;;;;;;3.10;0.80;;;14.40;86.10;;;;;;5043153;28;20461;-72
2022/12/31 04:58:39;;;;;;;3.30;1.10;;;14.50;85.90;;;;;;5041568;28;20459;-70
2022/12/31 05:01:09;;;;;;;4.10;1.00;;;14.50;86.00;;;;;;5040850;28;20856;-70
2022/12/31 05:03:37;;;;;;;5.60;1.40;;;14.50;86.00;;;;;;5040705;28;20548;-70
2022/12/31 05:06:08;;;;;;;4.73;1.10;;;14.50;86.00;;;;;;5043105;28;20537;-70
2022/12/31 05:08:36;;;;;;;3.03;0.90;;;14.60;85.90;;;;;;5041307;28;20455;-70
2022/12/31 05:11:04;;;;;;;3.17;0.90;;;14.50;86.00;;;;;;5042362;28;20509;-72
2022/12/31 05:13:32;;;;;;;4.30;1.17;;;14.60;86.00;;;;;;5042273;28;20487;-72
2022/12/31 05:16:00;;;;;;;3.50;1.00;;;14.60;86.00;;;;;;5042188;28;20489;-71
2022/12/31 05:18:30;;;;;;;4.90;0.80;;;14.60;85.90;;;;;;5043081;28;20459;-71
2022/12/31 05:20:58;;;;;;;3.00;0.97;;;14.60;85.80;;;;;;5042625;28;20520;-69
2022/12/31 05:23:26;;;;;;;6.47;1.07;;;14.70;85.80;;;;;;5043059;28;20487;-70
2022/12/31 05:25:54;;;;;;;2.93;0.77;;;14.70;85.70;;;;;;5041833;28;21711;-70
2022/12/31 05:28:22;;;;;;;7.07;1.20;;;14.70;85.70;;;;;;5042054;28;21213;-70
2022/12/31 05:30:51;;;;;;;3.83;1.00;;;14.70;85.70;;;;;;5043444;28;20455;-71
2022/12/31 05:33:20;;;;;;;3.40;0.80;;;14.70;85.70;;;;;;5042142;28;20467;-71
2022/12/31 05:35:49;;;;;;;3.27;1.07;;;14.60;85.80;;;;;;5040749;28;20451;-71
2022/12/31 05:38:17;;;;;;;5.30;1.13;;;14.70;85.70;;;;;;5042227;28;20442;-71
2022/12/31 05:40:45;;;;;;;3.87;1.33;;;14.70;85.60;;;;;;5041936;28;20463;-69
2022/12/31 05:43:14;;;;;;;2.90;0.90;;;14.70;85.60;;;;;;5041882;28;20477;-71
2022/12/31 05:45:42;;;;;;;4.33;1.30;;;14.70;85.60;;;;;;5042513;28;21396;-70
2022/12/31 05:48:10;;;;;;;2.80;0.80;;;14.70;85.50;;;;;;5042179;28;20475;-70
2022/12/31 05:50:37;;;;;;;3.17;1.20;;;14.70;85.60;;;;;;5042786;28;20509;-70
2022/12/31 05:53:09;;;;;;;3.73;0.93;;;14.70;85.40;;;;;;5042098;28;20866;-70
2022/12/31 05:55:37;;;;;;;3.73;0.90;;;14.70;85.40;;;;;;5044244;28;20447;-70
2022/12/31 05:58:05;;;;;;;4.60;1.17;;;14.70;85.60;;;;;;5041349;28;20487;-70
2022/12/31 06:00:33;;;;;;;3.00;0.90;;;14.70;85.50;;;;;;5038636;28;22330;-70
2022/12/31 06:03:01;;;;;;;3.47;1.00;;;14.70;85.50;;;;;;5040229;28;20479;-70
2022/12/31 06:05:29;;;;;;;3.77;0.97;;;14.80;85.40;;;;;;5041289;28;20469;-72
2022/12/31 06:07:57;;;;;;;2.90;0.83;;;14.80;85.40;;;;;;5041930;28;20471;-70
2022/12/31 06:10:26;;;;;;;3.47;1.00;;;14.80;85.30;;;;;;5040879;28;20999;-70
2022/12/31 06:12:54;;;;;;;4.70;1.10;;;14.80;85.30;;;;;;5041405;28;20903;-71
2022/12/31 06:15:22;;;;;;;5.27;0.93;;;14.80;85.40;;;;;;5040517;28;20968;-71
2022/12/31 06:17:50;;;;;;;3.60;0.93;;;14.80;85.40;;;;;;5040636;28;20517;-70
2022/12/31 06:20:18;;;;;;;4.50;1.70;;;14.80;85.40;;;;;;5039416;28;20475;-70
2022/12/31 06:22:46;;;;;;;3.40;1.00;;;14.80;85.30;;;;;;5040302;28;20540;-71
2022/12/31 06:25:14;;;;;;;3.07;0.93;;;14.90;85.20;;;;;;5041606;28;20456;-70
2022/12/31 06:27:43;;;;;;;3.37;0.73;;;14.90;85.10;;;;;;5043748;28;20475;-71
2022/12/31 06:30:12;;;;;;;6.27;0.90;;;14.90;85.20;;;;;;5040539;28;20457;-71
2022/12/31 06:32:41;;;;;;;3.53;1.10;;;14.80;85.20;;;;;;5040798;28;20482;-72
2022/12/31 06:35:09;;;;;;;3.77;1.20;;;14.90;85.20;;;;;;5041992;28;21453;-69
2022/12/31 06:37:37;;;;;;;3.07;0.70;;;14.90;85.20;;;;;;5042227;28;20465;-69
2022/12/31 06:40:06;;;;;;;3.40;0.83;;;14.90;85.00;;;;;;5040968;28;20539;-73
2022/12/31 06:42:34;;;;;;;3.40;1.00;;;14.90;85.00;;;;;;5040894;28;20483;-70
2022/12/31 06:45:04;;;;;;;4.30;0.93;;;14.90;85.00;;;;;;5041154;28;20471;-71
2022/12/31 06:47:32;;;;;;;4.27;1.33;;;15.00;85.00;;;;;;5058048;28;20486;-68
2022/12/31 06:50:00;;;;;;;4.70;1.20;;;14.90;85.00;;;;;;5041699;28;20469;-70
2022/12/31 06:52:27;;;;;;;3.40;0.80;;;15.00;85.00;;;;;;5044569;28;20487;-71
2022/12/31 06:54:56;;;;;;;3.70;1.00;;;15.00;84.90;;;;;;5044162;28;20451;-70
2022/12/31 06:57:25;;;;;;;3.63;0.80;;;15.00;84.80;;;;;;5045190;28;20971;-70
2022/12/31 06:59:53;;;;;;;3.17;1.00;;;15.00;84.80;;;;;;5044426;28;21252;-70
2022/12/31 07:02:38;;;;;;;3.80;0.90;;;15.10;84.70;;;;;;5043863;28;20482;-70
2022/12/31 07:05:21;;;;;;;3.03;0.90;;;15.10;84.60;;;;;;5044456;28;20462;-70
2022/12/31 07:07:56;;;;;;;3.73;1.07;;;15.20;84.50;;;;;;5043920;28;20513;-71
2022/12/31 07:10:34;;;;;;;3.10;0.80;;;15.20;84.50;;;;;;5045793;28;20462;-70
2022/12/31 07:13:14;;;;;;;3.93;0.90;;;15.20;84.40;;;;;;5044388;28;20482;-71
2022/12/31 07:15:54;;;;;;;3.60;1.00;;;15.20;84.30;;;;;;5043506;28;20463;-71
2022/12/31 07:18:32;;;;;;;3.00;0.90;;;15.20;84.50;;;;;;5044189;28;20841;-71
2022/12/31 07:21:01;;;;;;;5.60;1.00;;;15.20;84.40;;;;;;5044399;28;20466;-69
2022/12/31 07:23:30;;;;;;;3.10;0.80;;;15.20;84.40;;;;;;5046250;28;20493;-71
2022/12/31 07:26:06;;;;;;;4.20;1.13;;;15.20;84.40;;;;;;5044894;28;20482;-69
2022/12/31 07:28:45;;;;;;;3.23;0.90;;;15.20;84.20;;;;;;5043104;28;20486;-71
2022/12/31 07:31:22;;;;;;;4.30;1.00;;;15.20;84.20;;;;;;5058245;28;20459;-69
2022/12/31 07:33:58;;;;;;;3.40;0.80;;;15.20;84.10;;;;;;5044971;28;20561;-71
2022/12/31 07:36:46;;;;;;;3.23;0.90;;;15.20;84.10;;;;;;5043986;28;20454;-71
2022/12/31 07:39:20;;;;;;;3.47;1.00;;;15.20;84.10;;;;;;5042745;28;20528;-71
2022/12/31 07:41:57;;;;;;;3.20;0.83;;;15.20;84.00;;;;;;5043681;28;20466;-72
2022/12/31 07:44:40;;;;;;;3.77;1.53;;;15.20;84.20;;;;;;5044470;28;20489;-70
2022/12/31 07:47:19;;;;;;;3.20;0.90;;;15.30;84.00;;;;;;5043449;28;20474;-71
2022/12/31 07:49:49;;;;;;;3.30;1.00;;;15.30;83.70;;;;;;5044080;28;20443;-71
2022/12/31 07:52:17;;;;;;;4.00;1.27;;;15.30;83.80;;;;;;5043506;28;21257;-70
2022/12/31 07:54:46;;;;;;;4.10;0.93;;;15.30;83.80;;;;;;5042900;28;20459;-71
2022/12/31 07:57:15;;;;;;;3.60;0.80;;;15.30;83.70;;;;;;5044173;28;20470;-70
2022/12/31 07:59:56;;;;;;;5.20;1.20;;;15.30;83.70;;;;;;5043219;28;20463;-71
2022/12/31 08:02:56;;;;;;;4.30;1.00;;;15.30;83.70;;;;;;5043163;28;20577;-71
2022/12/31 08:05:32;;;;;;;3.57;0.97;;;15.20;83.70;;;;;;5042789;28;20555;-72
2022/12/31 08:08:11;;;;;;;4.03;1.00;;;15.20;83.80;;;;;;5044056;28;20478;-71
2022/12/31 08:10:45;;;;;;;3.53;1.20;;;15.30;83.70;;;;;;5043225;28;20466;-72
2022/12/31 08:13:13;;;;;;;3.90;1.10;;;15.20;83.80;;;;;;5041907;28;20481;-71
2022/12/31 08:15:42;;;;;;;5.27;1.07;;;15.20;83.80;;;;;;5043873;28;20491;-71
2022/12/31 08:18:10;;;;;;;4.63;1.00;;;15.20;83.70;;;;;;5043492;28;20524;-70
2022/12/31 08:20:49;;;;;;;3.40;0.90;;;15.30;83.60;;;;;;5043303;28;20451;-71
2022/12/31 08:23:24;;;;;;;5.17;1.30;;;15.20;83.60;;;;;;5043381;28;20482;-70
2022/12/31 08:26:13;;;;;;;3.13;1.10;;;15.20;83.70;;;;;;5043408;28;20978;-71
2022/12/31 08:28:52;;;;;;;5.20;1.30;;;15.20;83.80;;;;;;5041661;28;20483;-71
2022/12/31 08:31:27;;;;;;;3.10;0.97;;;15.30;83.60;;;;;;5040288;28;20458;-71
2022/12/31 08:34:00;;;;;;;3.40;1.27;;;15.30;83.70;;;;;;5044033;28;20577;-71
2022/12/31 08:36:45;;;;;;;4.07;1.00;;;15.30;83.60;;;;;;5041805;28;20455;-71
2022/12/31 08:39:21;;;;;;;8.23;1.30;;;15.30;83.40;;;;;;5064089;28;20459;-71
2022/12/31 08:41:52;;;;;;;4.50;1.23;;;15.30;83.30;;;;;;5038017;28;20475;-71
2022/12/31 08:44:26;;;;;;;6.40;1.00;;;15.40;83.10;;;;;;5038338;28;20936;-72
2022/12/31 08:47:04;;;;;;;4.70;1.17;;;15.30;83.10;;;;;;5041150;28;20866;-73
2022/12/31 08:49:34;;;;;;;4.50;1.13;;;15.40;83.10;;;;;;5040962;28;20486;-71
2022/12/31 08:52:04;;;;;;;3.33;1.07;;;15.30;83.20;;;;;;5041473;28;20451;-70
2022/12/31 08:54:32;;;;;;;3.00;1.00;;;15.30;83.20;;;;;;5040336;28;20459;-71
2022/12/31 08:57:09;;;;;;;3.20;0.97;;;15.30;83.40;;;;;;5041071;28;20505;-72
2022/12/31 08:59:45;;;;;;;3.40;1.23;;;15.30;83.50;;;;;;5040612;28;20460;-71
2022/12/31 09:03:11;;;;;;;3.63;1.40;;;15.30;83.40;;;;;;5040080;28;20482;-72
2022/12/31 09:05:53;;;;;;;5.17;1.50;;;15.30;83.40;;;;;;4984858;28;20469;-72
2022/12/31 09:08:30;;;;;;;4.90;1.60;;;15.30;83.50;;;;;;5042888;28;20991;-72
2022/12/31 09:11:04;;;;;;;3.10;1.10;;;15.30;83.40;;;;;;5040316;28;20458;-72
2022/12/31 09:13:41;;;;;;;3.50;1.10;;;15.30;83.50;;;;;;5041856;28;20466;-73
2022/12/31 09:16:18;;;;;;;3.10;1.10;;;15.30;83.20;;;;;;5042747;28;20512;-72
2022/12/31 09:18:46;;;;;;;6.53;1.27;;;15.30;83.40;;;;;;5042086;28;20993;-72
2022/12/31 09:21:16;;;;;;;4.20;1.10;;;15.30;83.40;;;;;;5041820;28;20500;-72
2022/12/31 09:23:46;;;;;;;3.10;1.00;;;15.30;83.30;;;;;;5041686;28;20466;-73
2022/12/31 09:26:30;;;;;;;4.53;1.50;;;15.40;83.30;;;;;;5043315;28;20451;-71
2022/12/31 09:29:08;;;;;;;4.17;1.30;;;15.30;83.40;;;;;;5041737;28;20528;-70
2022/12/31 09:31:40;;;;;;;3.63;1.50;;;15.40;83.30;;;;;;5042037;28;21221;-72
2022/12/31 09:34:15;;;;;;;3.90;1.10;;;15.40;83.10;;;;;;5041084;28;20514;-72
2022/12/31 09:36:48;;;;;;;4.73;1.37;;;15.40;83.10;;;;;;5042269;28;20442;-70
2022/12/31 09:39:25;;;;;;;3.50;1.13;;;15.40;83.10;;;;;;5040614;28;21354;-71
2022/12/31 09:42:09;;;;;;;3.63;1.13;;;15.50;83.00;;;;;;5042167;28;20454;-71
2022/12/31 09:44:57;;;;;;;3.10;0.90;;;15.50;83.00;;;;;;5042491;28;20524;-72
2022/12/31 09:47:50;;;;;;;3.77;1.23;;;15.50;82.90;;;;;;5040380;28;20450;-72
2022/12/31 09:50:42;;;;;;;4.20;1.20;;;15.50;82.90;;;;;;5041478;28;20482;-72
2022/12/31 09:53:35;;;;;;;3.77;1.27;;;15.60;82.80;;;;;;5040425;28;20552;-71
2022/12/31 09:56:12;;;;;;;3.60;0.87;;;15.50;82.90;;;;;;5041203;28;20506;-70
2022/12/31 09:58:55;;;;;;;3.67;0.90;;;15.60;82.70;;;;;;5040734;28;20540;-71
2022/12/31 10:01:35;;;;;;;4.53;1.17;;;15.60;82.60;;;;;;5033656;28;20563;-72
2022/12/31 10:04:29;;;;;;;3.30;0.90;;;15.60;82.70;;;;;;5037539;28;20489;-72
2022/12/31 10:07:13;;;;;;;6.90;1.50;;;15.60;82.60;;;;;;5039001;28;20858;-72
2022/12/31 10:09:51;;;;;;;4.13;1.30;;;15.60;82.60;;;;;;5038559;28;20960;-72
2022/12/31 10:12:46;;;;;;;4.20;1.20;;;15.70;82.50;;;;;;5039391;28;20547;-72
2022/12/31 10:15:46;;;;;;;5.03;1.20;;;15.70;82.40;;;;;;5039745;28;20516;-71
2022/12/31 10:18:24;;;;;;;4.17;1.30;;;15.70;82.30;;;;;;5040102;28;20459;-71
2022/12/31 10:21:05;;;;;;;3.40;1.10;;;15.70;82.40;;;;;;5036786;28;20442;-71
2022/12/31 10:23:58;;;;;;;4.43;1.20;;;15.70;82.30;;;;;;5038189;28;20490;-71
2022/12/31 10:26:48;;;;;;;3.90;1.40;;;15.70;82.20;;;;;;5038646;28;20988;-72
2022/12/31 10:29:36;;;;;;;8.67;1.20;;;15.70;82.40;;;;;;5039291;28;20471;-72
2022/12/31 10:32:16;;;;;;;3.03;0.97;;;15.80;82.30;;;;;;5041539;28;20462;-71
2022/12/31 10:34:55;;;;;;;8.67;1.33;;;15.80;82.30;;;;;;5037800;28;21234;-71
2022/12/31 10:37:27;;;;;;;3.70;1.23;;;15.80;82.30;;;;;;5039323;28;20459;-71
2022/12/31 10:40:15;;;;;;;13.37;7.07;;;15.70;82.20;;;;;;5034683;28;20843;-72
2022/12/31 10:43:19;;;;;;;5.57;2.83;;;15.80;82.20;;;;;;5036460;28;20544;-72
2022/12/31 10:46:27;;;;;;;4.93;2.47;;;15.80;82.20;;;;;;5010718;28;20534;-72
2022/12/31 10:49:36;;;;;;;4.27;1.10;;;15.80;82.00;;;;;;5040360;28;20478;-72
2022/12/31 10:52:57;;;;;;;4.60;1.40;;;15.90;81.70;;;;;;5040778;28;20459;-71
2022/12/31 10:56:05;;;;;;;7.33;1.73;;;16.00;81.60;;;;;;5039960;28;20463;-73
2022/12/31 10:59:01;;;;;;;7.80;1.53;;;16.10;81.30;;;;;;5021661;28;20525;-72
2022/12/31 11:01:45;;;;;;;4.50;1.00;;;16.00;81.40;;;;;;5037660;28;20467;-71
2022/12/31 11:04:41;;;;;;;4.60;1.20;;;16.00;81.40;;;;;;5040662;28;20493;-70
2022/12/31 11:07:33;;;;;;;3.77;1.27;;;16.00;81.40;;;;;;5037278;28;20463;-70
2022/12/31 11:10:45;;;;;;;6.10;1.50;;;15.90;81.40;;;;;;5037626;28;20475;-70
2022/12/31 11:13:49;;;;;;;4.40;1.20;;;15.90;81.40;;;;;;5014202;28;21009;-71
2022/12/31 11:16:43;;;;;;;3.10;1.00;;;15.90;81.30;;;;;;5037681;28;20540;-70
2022/12/31 11:19:18;;;;;;;5.63;1.60;;;16.00;81.20;;;;;;5010523;28;21776;-70
2022/12/31 11:22:01;;;;;;;4.20;1.23;;;15.90;81.20;;;;;;5037108;28;20473;-70
2022/12/31 11:24:42;;;;;;;3.93;1.33;;;15.90;81.30;;;;;;5039400;28;21061;-70
2022/12/31 11:27:24;;;;;;;4.53;1.10;;;16.00;81.20;;;;;;5041234;28;20492;-70
2022/12/31 11:30:04;;;;;;;4.00;1.17;;;16.00;81.10;;;;;;5036254;28;20478;-72
2022/12/31 11:32:53;;;;;;;4.30;1.60;;;16.00;81.10;;;;;;5041257;28;20497;-71
2022/12/31 11:35:27;;;;;;;3.60;1.30;;;16.00;81.10;;;;;;5040857;28;20463;-71
2022/12/31 11:38:09;;;;;;;3.53;0.90;;;16.00;81.00;;;;;;5040026;28;20952;-71
2022/12/31 11:40:43;;;;;;;4.60;1.00;;;16.00;81.10;;;;;;5044598;28;20460;-71
2022/12/31 11:43:23;;;;;;;3.70;1.27;;;16.00;81.00;;;;;;5043154;28;20498;-71
2022/12/31 11:46:28;;;;;;;4.17;1.40;;;16.10;80.90;;;;;;5056338;28;20470;-71
2022/12/31 11:49:15;;;;;;;3.27;1.07;;;16.20;80.70;;;;;;5048863;28;20498;-71
2022/12/31 11:52:09;;;;;;;5.57;1.33;;;16.20;80.60;;;;;;5034729;28;20463;-70
2022/12/31 11:54:59;;;;;;;3.83;1.20;;;16.20;80.60;;;;;;5040399;28;20462;-71
2022/12/31 11:57:33;;;;;;;3.60;1.00;;;16.20;80.50;;;;;;5042851;28;20467;-70
2022/12/31 12:00:07;;;;;;;3.57;0.97;;;16.20;80.60;;;;;;5042127;28;20455;-73
2022/12/31 12:02:44;;;;;;;3.50;1.03;;;16.30;80.50;;;;;;5040541;28;20570;-69
2022/12/31 12:05:16;;;;;;;5.43;1.30;;;16.30;80.30;;;;;;5039038;28;20451;-70
2022/12/31 12:07:44;;;;;;;4.67;1.23;;;16.30;80.30;;;;;;5043812;28;20442;-70
2022/12/31 12:10:22;;;;;;;3.90;1.20;;;16.30;80.30;;;;;;5041749;28;21036;-70
2022/12/31 12:12:51;;;;;;;8.60;1.70;;;16.40;80.20;;;;;;5054543;28;20493;-72
2022/12/31 12:15:22;;;;;;;3.73;1.10;;;16.40;80.10;;;;;;5042635;28;20509;-72
2022/12/31 12:17:54;;;;;;;3.23;0.90;;;16.40;80.00;;;;;;5041755;28;20471;-71
2022/12/31 12:20:29;;;;;;;3.70;1.20;;;16.40;80.10;;;;;;5040702;28;20462;-72
2022/12/31 12:22:59;;;;;;;4.90;1.13;;;16.50;80.10;;;;;;5041045;28;21089;-72
2022/12/31 12:25:36;;;;;;;5.70;1.03;;;16.50;80.00;;;;;;5043904;28;20447;-71
2022/12/31 12:28:17;;;;;;;4.90;1.10;;;16.60;80.00;;;;;;5042374;28;20462;-71
2022/12/31 12:30:47;;;;;;;5.30;1.20;;;16.60;79.90;;;;;;5040792;28;20506;-72
2022/12/31 12:33:17;;;;;;;4.40;1.20;;;16.70;79.70;;;;;;5042794;28;20475;-72
2022/12/31 12:35:47;;;;;;;4.30;0.93;;;16.70;79.80;;;;;;5043208;28;20485;-72
2022/12/31 12:38:18;;;;;;;4.57;1.37;;;16.80;79.50;;;;;;5042520;28;20462;-71
2022/12/31 12:40:57;;;;;;;5.50;1.50;;;16.80;79.30;;;;;;5043104;28;20512;-72
2022/12/31 12:43:28;;;;;;;3.80;1.40;;;16.80;79.30;;;;;;5042941;28;20489;-72
2022/12/31 12:46:00;;;;;;;3.80;0.90;;;16.80;79.30;;;;;;5042942;28;20458;-72
2022/12/31 12:48:36;;;;;;;3.60;1.00;;;16.80;79.30;;;;;;5059021;28;20497;-72
2022/12/31 12:51:23;;;;;;;4.53;0.90;;;16.90;79.00;;;;;;5043383;28;20474;-70
2022/12/31 12:54:00;;;;;;;4.43;1.10;;;16.90;78.80;;;;;;5042398;28;20482;-71
2022/12/31 12:56:40;;;;;;;3.10;0.90;;;16.90;78.60;;;;;;5043630;28;20497;-72
2022/12/31 12:59:31;;;;;;;4.10;1.10;;;16.90;78.60;;;;;;5040298;28;20659;-72
2022/12/31 13:02:11;;;;;;;4.57;1.03;;;16.90;78.50;;;;;;5042558;28;20455;-70
2022/12/31 13:04:56;;;;;;;3.10;0.90;;;17.00;78.30;;;;;;5043191;28;20864;-71
2022/12/31 13:07:37;;;;;;;3.80;1.20;;;16.90;78.20;;;;;;5043912;28;20513;-71
2022/12/31 13:10:26;;;;;;;5.57;1.03;;;16.90;78.20;;;;;;5042063;28;20532;-72
2022/12/31 13:13:04;;;;;;;6.90;1.23;;;16.90;78.00;;;;;;5040943;28;20483;-71
2022/12/31 13:15:56;;;;;;;4.30;1.00;;;16.90;78.10;;;;;;5042071;28;20547;-72
2022/12/31 13:18:39;;;;;;;6.20;1.17;;;16.90;78.10;;;;;;5043064;28;20451;-72
2022/12/31 13:21:22;;;;;;;5.53;0.80;;;16.90;77.90;;;;;;5042882;28;20798;-71
2022/12/31 13:23:56;;;;;;;5.93;1.10;;;16.90;77.60;;;;;;5040335;28;20479;-72
2022/12/31 13:26:27;;;;;;;4.07;1.03;;;16.90;77.90;;;;;;5034794;28;20525;-72
2022/12/31 13:28:58;;;;;;;4.47;1.27;;;17.00;78.00;;;;;;5039617;28;20455;-70
2022/12/31 13:31:31;;;;;;;3.80;1.00;;;17.10;78.00;;;;;;5041557;28;20524;-71
2022/12/31 13:34:03;;;;;;;3.47;0.87;;;17.20;77.70;;;;;;5042291;28;20489;-72
2022/12/31 13:36:35;;;;;;;3.10;0.90;;;17.30;78.00;;;;;;5043385;28;20952;-72
2022/12/31 13:39:11;;;;;;;5.60;1.00;;;17.40;77.30;;;;;;5039605;28;20471;-71